Time;durP1;ratioP1;P1;durP2;ratioP2;P2;SDS_P1;SDS_P2;PMS_P1;PMS_P2;Temp;Humidity;BMP_temperature;BMP_pressure;BME280_temperature;BME280_humidity;BME280_pressure;Samples;Min_cycle;Max_cycle;Signal;HPM_P1;HPM_P2
2021/12/30 00:01:06;;;;;;;25.55;7.35;;;;;;;11.69;89.96;100602.78;6217258;23;20365;-79
2021/12/30 00:03:33;;;;;;;23.90;7.10;;;;;;;11.70;89.94;100601.81;6215919;23;20021;-78
2021/12/30 00:06:00;;;;;;;23.10;6.40;;;;;;;11.62;90.15;100606.06;6215604;23;20377;-78
2021/12/30 00:08:28;;;;;;;27.13;8.23;;;;;;;11.59;90.30;100622.09;6214310;23;20361;-79
2021/12/30 00:10:55;;;;;;;34.08;8.70;;;;;;;11.52;90.56;100631.59;6215109;23;20036;-80
2021/12/30 00:13:22;;;;;;;28.52;6.80;;;;;;;11.49;90.91;100629.31;6215626;23;20025;-79
2021/12/30 00:15:50;;;;;;;30.90;7.97;;;;;;;11.37;91.02;100648.91;6215117;23;20036;-80
2021/12/30 00:18:17;;;;;;;21.38;7.15;;;;;;;11.47;90.25;100643.53;6213908;23;20017;-80
2021/12/30 00:20:44;;;;;;;23.17;7.57;;;;;;;11.48;90.32;100651.25;6223804;23;20346;-81
2021/12/30 00:23:11;;;;;;;27.85;9.07;;;;;;;11.43;90.44;100650.09;6221083;23;20012;-79
2021/12/30 00:25:41;;;;;;;26.52;9.02;;;;;;;11.37;90.99;100651.53;6214398;23;20024;-79
2021/12/30 00:28:10;;;;;;;27.83;9.55;;;;;;;11.41;90.75;100660.72;6214026;23;20020;-79
2021/12/30 00:30:38;;;;;;;21.85;8.55;;;;;;;11.42;90.66;100670.22;6214328;23;20024;-79
2021/12/30 00:33:05;;;;;;;23.77;8.10;;;;;;;11.40;90.92;100674.81;6214868;23;20067;-79
2021/12/30 00:35:33;;;;;;;29.33;8.32;;;;;;;11.41;90.65;100671.19;6214788;23;20424;-79
2021/12/30 00:38:00;;;;;;;28.85;10.07;;;;;;;11.43;90.63;100668.44;6214501;23;20024;-79
2021/12/30 00:40:28;;;;;;;22.38;8.10;;;;;;;11.46;90.15;100679.41;6215502;23;20075;-79
2021/12/30 00:42:56;;;;;;;22.02;8.57;;;;;;;11.40;90.70;100682.66;6214915;23;20134;-79
2021/12/30 00:45:23;;;;;;;27.48;8.30;;;;;;;11.48;90.66;100679.25;6215008;23;20025;-78
2021/12/30 00:47:49;;;;;;;27.10;8.65;;;;;;;11.45;90.92;100677.75;6213950;23;20020;-77
2021/12/30 00:50:16;;;;;;;29.25;8.38;;;;;;;11.48;90.66;100685.31;6215264;23;20017;-79
2021/12/30 00:52:43;;;;;;;26.20;8.70;;;;;;;11.48;90.62;100695.78;6216379;23;20025;-79
2021/12/30 00:55:10;;;;;;;26.13;8.52;;;;;;;11.49;90.75;100699.22;6215859;23;20071;-78
2021/12/30 00:57:37;;;;;;;23.52;7.75;;;;;;;11.53;90.77;100711.03;6215817;23;20016;-78
2021/12/30 01:00:10;;;;;;;25.20;8.55;;;;;;;11.47;90.98;100709.06;6215522;23;20514;-78
2021/12/30 01:02:37;;;;;;;22.95;7.90;;;;;;;11.52;90.82;100712.84;6215800;23;20020;-79
2021/12/30 01:05:08;;;;;;;27.23;8.50;;;;;;;11.59;90.68;100708.59;6216040;23;20016;-79
2021/12/30 01:07:35;;;;;;;30.92;9.80;;;;;;;11.53;91.11;100698.75;6215745;23;20032;-78
2021/12/30 01:10:02;;;;;;;25.00;9.23;;;;;;;11.46;91.22;100696.94;6215632;23;20017;-79
2021/12/30 01:12:29;;;;;;;22.90;8.35;;;;;;;11.40;91.34;100698.38;6215640;23;20020;-79
2021/12/30 01:14:56;;;;;;;26.75;8.02;;;;;;;11.44;91.37;100701.50;6215619;23;20025;-79
2021/12/30 01:17:38;;;;;;;19.20;8.43;;;;;;;11.37;91.63;100696.09;6215833;23;20017;-79
2021/12/30 01:20:06;;;;;;;22.80;7.97;;;;;;;11.35;92.28;100692.81;6216410;23;20012;-79
2021/12/30 01:22:33;;;;;;;26.65;8.57;;;;;;;11.28;92.43;100692.63;6223022;23;20071;-80
2021/12/30 01:25:01;;;;;;;24.65;8.30;;;;;;;11.29;92.68;100693.47;6223034;23;20013;-80
2021/12/30 01:27:27;;;;;;;25.42;8.13;;;;;;;11.44;92.04;100698.88;6221333;23;20017;-80
2021/12/30 01:29:54;;;;;;;23.80;7.00;;;;;;;11.41;92.02;100697.41;6218407;23;20020;-79
2021/12/30 01:32:21;;;;;;;25.52;7.45;;;;;;;11.49;91.92;100697.44;6219143;23;20047;-79
2021/12/30 01:34:49;;;;;;;21.95;6.97;;;;;;;11.41;92.28;100701.81;6216618;23;20021;-80
2021/12/30 01:37:20;;;;;;;25.48;6.63;;;;;;;11.47;92.13;100709.88;6216412;23;20039;-80
2021/12/30 01:39:46;;;;;;;23.60;6.70;;;;;;;11.50;92.02;100717.41;6216181;23;20076;-79
2021/12/30 01:42:13;;;;;;;23.85;7.30;;;;;;;11.55;92.04;100732.66;6216310;23;20020;-79
2021/12/30 01:44:40;;;;;;;19.88;6.35;;;;;;;11.59;91.88;100724.31;6216811;23;20070;-79
2021/12/30 01:47:08;;;;;;;22.30;6.63;;;;;;;11.56;92.29;100732.50;6215732;23;20024;-79
2021/12/30 01:49:35;;;;;;;26.25;6.95;;;;;;;11.60;92.20;100733.00;6215780;23;20020;-79
2021/12/30 01:52:04;;;;;;;20.25;6.65;;;;;;;11.60;92.26;100725.97;6216591;23;20458;-79
2021/12/30 01:54:31;;;;;;;23.17;7.10;;;;;;;11.62;92.45;100733.66;6216869;23;20032;-80
2021/12/30 01:57:02;;;;;;;24.92;7.38;;;;;;;11.68;92.32;100729.59;6219064;23;20083;-79
2021/12/30 01:59:29;;;;;;;29.65;7.78;;;;;;;11.71;92.65;100727.47;6217932;23;20039;-79
2021/12/30 02:01:57;;;;;;;19.17;6.68;;;;;;;11.68;92.97;100713.84;6218627;23;20025;-79
2021/12/30 02:04:24;;;;;;;24.17;7.53;;;;;;;11.62;93.62;100707.47;6219010;23;20028;-79
2021/12/30 02:06:51;;;;;;;23.40;8.10;;;;;;;11.66;93.07;100713.19;6218269;23;20012;-79
2021/12/30 02:09:21;;;;;;;19.58;7.97;;;;;;;11.68;93.61;100714.69;6217079;23;20074;-78
2021/12/30 02:11:48;;;;;;;21.13;7.47;;;;;;;11.65;93.38;100715.00;6216683;23;20084;-79
2021/12/30 02:14:15;;;;;;;18.40;7.68;;;;;;;11.66;93.69;100703.53;6216843;23;20024;-79
2021/12/30 02:16:43;;;;;;;20.40;7.53;;;;;;;11.66;93.86;100705.34;6216396;23;20078;-79
2021/12/30 02:19:10;;;;;;;16.30;7.05;;;;;;;11.63;94.00;100702.06;6218073;23;20056;-79
2021/12/30 02:21:38;;;;;;;20.58;7.28;;;;;;;11.76;94.14;100708.63;6218179;23;20029;-79
2021/12/30 02:24:07;;;;;;;22.55;8.10;;;;;;;11.82;93.87;100708.00;6218642;23;20040;-79
2021/12/30 02:26:36;;;;;;;16.05;7.70;;;;;;;11.93;93.89;100712.94;6218375;23;20016;-79
2021/12/30 02:29:03;;;;;;;21.38;7.32;;;;;;;12.05;93.73;100711.63;6218203;23;20012;-79
2021/12/30 02:31:31;;;;;;;21.70;7.53;;;;;;;12.07;93.91;100714.91;6219134;23;20021;-80
2021/12/30 02:33:59;;;;;;;21.27;7.22;;;;;;;12.04;94.03;100715.22;6219501;23;20406;-79
2021/12/30 02:36:29;;;;;;;17.73;6.30;;;;;;;12.11;94.34;100705.72;6218951;23;20067;-79
2021/12/30 02:38:58;;;;;;;17.85;6.57;;;;;;;12.02;94.42;100690.97;6218794;23;20024;-78
2021/12/30 02:41:27;;;;;;;16.67;7.13;;;;;;;12.08;94.44;100700.00;6218199;23;20020;-80
2021/12/30 02:43:54;;;;;;;15.68;6.63;;;;;;;12.04;94.77;100704.75;6217279;23;20082;-80
2021/12/30 02:46:23;;;;;;;19.42;6.47;;;;;;;12.07;94.36;100698.34;6218618;23;20021;-80
2021/12/30 02:48:54;;;;;;;18.58;6.95;;;;;;;12.04;94.81;100712.63;6218874;23;20024;-80
2021/12/30 02:51:21;;;;;;;19.75;7.20;;;;;;;12.12;95.00;100712.63;6219008;23;20095;-79
2021/12/30 02:53:48;;;;;;;16.65;8.63;;;;;;;12.06;95.51;100697.53;6218550;23;20100;-79
2021/12/30 02:56:17;;;;;;;21.35;9.40;;;;;;;12.02;96.04;100708.50;6217051;23;20079;-79
2021/12/30 02:58:44;;;;;;;20.05;8.43;;;;;;;12.10;96.29;100725.06;6216790;23;20411;-79
2021/12/30 03:01:12;;;;;;;14.80;8.23;;;;;;;12.12;96.13;100727.53;6215348;23;20028;-79
2021/12/30 03:03:40;;;;;;;15.20;7.22;;;;;;;12.05;96.89;100718.69;6216668;23;20013;-80
2021/12/30 03:06:09;;;;;;;19.70;7.55;;;;;;;12.06;96.81;100722.94;6218788;23;20041;-80
2021/12/30 03:08:38;;;;;;;23.92;7.50;;;;;;;12.05;97.35;100727.38;6217889;23;20082;-80
2021/12/30 03:11:06;;;;;;;20.25;9.85;;;;;;;11.93;97.35;100715.56;6217606;23;20025;-79
2021/12/30 03:13:35;;;;;;;20.40;8.98;;;;;;;12.03;97.61;100729.34;6219598;23;20017;-80
2021/12/30 03:16:04;;;;;;;23.25;10.63;;;;;;;11.99;98.02;100722.78;6219469;23;20020;-80
2021/12/30 03:18:32;;;;;;;27.85;11.25;;;;;;;11.96;98.41;100725.72;6217426;23;20012;-79
2021/12/30 03:20:59;;;;;;;21.13;10.70;;;;;;;11.94;98.83;100731.13;6216845;23;20024;-79
2021/12/30 03:23:26;;;;;;;19.65;9.55;;;;;;;11.94;98.48;100727.69;6217699;23;20020;-79
2021/12/30 03:25:53;;;;;;;24.40;10.25;;;;;;;11.99;98.70;100735.06;6217930;23;20021;-78
2021/12/30 03:28:20;;;;;;;26.00;9.27;;;;;;;11.95;98.92;100737.19;6216973;23;20083;-79
2021/12/30 03:30:50;;;;;;;18.48;9.43;;;;;;;11.94;98.84;100741.63;6217904;23;20025;-79
2021/12/30 03:33:17;;;;;;;20.25;9.38;;;;;;;11.90;98.69;100729.81;6211872;23;20025;-77
2021/12/30 03:35:44;;;;;;;18.50;8.77;;;;;;;12.00;98.85;100740.16;6213431;23;20091;-79
2021/12/30 03:38:10;;;;;;;19.20;8.18;;;;;;;12.00;98.94;100734.09;6214680;23;20036;-79
2021/12/30 03:40:38;;;;;;;16.98;8.45;;;;;;;11.93;99.04;100733.91;6213430;23;20282;-79
2021/12/30 03:43:05;;;;;;;13.30;7.90;;;;;;;11.92;99.05;100733.09;6216543;23;20492;-79
2021/12/30 03:45:31;;;;;;;15.10;8.27;;;;;;;11.93;99.38;100731.28;6213910;23;20432;-79
2021/12/30 03:48:00;;;;;;;15.68;8.05;;;;;;;11.93;99.21;100741.78;6213271;23;20076;-79
2021/12/30 03:50:29;;;;;;;12.93;7.78;;;;;;;11.87;99.67;100740.63;6212235;23;20082;-78
2021/12/30 03:52:57;;;;;;;19.10;8.00;;;;;;;11.96;99.58;100749.31;6213212;23;20032;-78
2021/12/30 03:55:26;;;;;;;13.65;7.40;;;;;;;11.94;99.63;100746.03;6212881;23;20024;-79
2021/12/30 03:57:54;;;;;;;12.07;6.78;;;;;;;11.94;99.83;100751.28;6212674;23;20013;-78
2021/12/30 04:00:23;;;;;;;10.90;6.35;;;;;;;11.98;99.74;100743.91;6210841;23;20020;-79
2021/12/30 04:02:50;;;;;;;10.25;6.43;;;;;;;11.99;99.81;100743.75;6213166;23;20016;-77
2021/12/30 04:05:19;;;;;;;14.15;5.75;;;;;;;11.98;99.56;100747.34;6213116;23;20017;-79
2021/12/30 04:07:46;;;;;;;11.60;6.47;;;;;;;11.89;99.81;100748.31;6213481;23;20511;-79
2021/12/30 04:10:14;;;;;;;13.55;6.88;;;;;;;11.90;100.00;100745.53;6213474;23;20019;-79
2021/12/30 04:12:41;;;;;;;19.38;13.55;;;;;;;12.01;99.86;100749.66;6214299;23;20403;-80
2021/12/30 04:15:09;;;;;;;10.88;8.45;;;;;;;12.04;99.85;100746.72;6214635;23;20456;-78
2021/12/30 04:17:36;;;;;;;7.32;5.53;;;;;;;11.94;100.00;100752.09;6212704;23;20028;-79
2021/12/30 04:20:04;;;;;;;8.40;6.63;;;;;;;11.99;100.00;100753.41;6211166;23;20147;-79
2021/12/30 04:22:32;;;;;;;6.90;5.43;;;;;;;11.97;100.00;100756.19;6213096;23;20074;-79
2021/12/30 04:24:59;;;;;;;8.98;4.97;;;;;;;12.02;100.00;100759.16;6214740;23;20070;-78
2021/12/30 04:27:26;;;;;;;11.30;5.88;;;;;;;11.96;100.00;100754.56;6215142;23;20107;-79
2021/12/30 04:29:52;;;;;;;7.82;3.83;;;;;;;12.03;100.00;100747.69;6209999;23;20024;-78
2021/12/30 04:32:19;;;;;;;6.82;3.85;;;;;;;11.99;100.00;100758.66;6211740;23;20349;-79
2021/12/30 04:34:46;;;;;;;5.07;3.40;;;;;;;12.05;100.00;100748.34;6210941;23;20028;-78
2021/12/30 04:37:13;;;;;;;4.88;3.78;;;;;;;12.17;100.00;100751.47;6213714;23;20028;-79
2021/12/30 04:39:41;;;;;;;5.80;3.30;;;;;;;12.22;100.00;100744.75;6214153;23;20544;-78
2021/12/30 04:42:08;;;;;;;8.10;4.18;;;;;;;12.26;100.00;100755.75;6214695;23;20082;-79
2021/12/30 04:44:35;;;;;;;5.20;4.07;;;;;;;12.23;100.00;100748.22;6215521;23;20068;-78
2021/12/30 04:47:02;;;;;;;7.28;4.28;;;;;;;12.30;100.00;100759.66;6217688;23;20016;-78
2021/12/30 04:49:28;;;;;;;5.50;4.38;;;;;;;12.34;100.00;100749.66;6216440;23;20020;-78
2021/12/30 04:51:55;;;;;;;8.38;5.28;;;;;;;12.36;100.00;100759.00;6219423;23;20028;-78
2021/12/30 04:54:22;;;;;;;8.50;5.60;;;;;;;12.43;99.96;100751.31;6219660;23;20021;-78
2021/12/30 04:56:51;;;;;;;8.55;6.03;;;;;;;12.45;100.00;100738.84;6219758;23;20024;-78
2021/12/30 04:59:17;;;;;;;9.95;6.85;;;;;;;12.48;100.00;100735.88;6215559;23;20361;-78
2021/12/30 05:01:44;;;;;;;12.13;6.82;;;;;;;12.56;99.69;100743.75;6215796;23;20056;-79
2021/12/30 05:04:11;;;;;;;9.38;7.53;;;;;;;12.56;99.80;100752.44;6216321;23;20024;-78
2021/12/30 05:06:38;;;;;;;11.65;7.93;;;;;;;12.61;99.73;100755.41;6216500;23;20020;-79
2021/12/30 05:09:08;;;;;;;13.50;7.22;;;;;;;12.63;99.49;100755.22;6215958;23;20075;-79
2021/12/30 05:11:36;;;;;;;10.23;6.70;;;;;;;12.65;99.47;100755.88;6217539;23;20016;-79
2021/12/30 05:14:04;;;;;;;8.73;5.72;;;;;;;12.68;99.50;100760.81;6217054;23;20469;-79
2021/12/30 05:16:31;;;;;;;6.80;5.30;;;;;;;12.73;99.42;100758.50;6218377;23;20056;-79
2021/12/30 05:18:58;;;;;;;8.75;4.97;;;;;;;12.78;99.22;100769.28;6200714;23;20468;-80
2021/12/30 05:21:25;;;;;;;5.75;4.78;;;;;;;12.82;99.28;100767.97;6201171;23;20017;-81
2021/12/30 05:23:53;;;;;;;6.40;5.07;;;;;;;12.88;99.00;100756.81;6202329;23;20021;-80
2021/12/30 05:26:22;;;;;;;6.47;4.70;;;;;;;12.88;98.88;100754.19;6204436;23;20021;-81
2021/12/30 05:28:49;;;;;;;5.35;4.28;;;;;;;12.94;98.84;100771.91;6220843;23;20024;-83
2021/12/30 05:31:17;;;;;;;6.90;3.95;;;;;;;12.94;98.65;100756.13;6234353;23;20024;-83
2021/12/30 05:33:44;;;;;;;6.38;4.30;;;;;;;12.95;98.78;100775.34;6233860;23;20017;-83
2021/12/30 05:36:11;;;;;;;6.03;4.05;;;;;;;13.00;98.31;100774.84;6230511;23;20024;-83
2021/12/30 05:38:38;;;;;;;7.95;4.88;;;;;;;13.09;98.30;100772.03;6232419;23;20005;-83
2021/12/30 05:41:05;;;;;;;4.60;4.10;;;;;;;13.08;98.26;100769.56;6234604;23;20024;-83
2021/12/30 05:43:31;;;;;;;6.10;4.40;;;;;;;13.12;98.14;100773.50;6229596;23;20013;-83
2021/12/30 05:45:58;;;;;;;6.65;4.20;;;;;;;13.12;98.15;100786.63;6227396;23;20016;-83
2021/12/30 05:48:27;;;;;;;6.22;3.83;;;;;;;13.19;98.15;100792.91;6225131;23;20036;-84
2021/12/30 05:50:59;;;;;;;6.00;3.83;;;;;;;13.20;97.76;100797.97;6228038;23;20031;-83
2021/12/30 05:53:26;;;;;;;6.07;3.80;;;;;;;13.19;97.87;100790.28;6225843;23;20397;-83
2021/12/30 05:55:53;;;;;;;6.88;4.25;;;;;;;13.21;97.73;100790.91;6224611;23;20039;-83
2021/12/30 05:58:20;;;;;;;7.50;3.55;;;;;;;13.24;97.62;100793.19;6223056;23;20024;-83
2021/12/30 06:00:47;;;;;;;4.18;3.75;;;;;;;13.32;97.45;100800.22;6224859;23;20024;-82
2021/12/30 06:03:14;;;;;;;4.22;3.80;;;;;;;13.29;97.35;100801.38;6223090;23;20016;-83
2021/12/30 06:05:42;;;;;;;6.18;4.03;;;;;;;13.29;97.55;100810.09;6222363;23;20012;-83
2021/12/30 06:08:09;;;;;;;8.27;4.28;;;;;;;13.34;97.47;100809.56;6224025;23;20083;-83
2021/12/30 06:10:37;;;;;;;4.40;3.67;;;;;;;13.38;97.43;100824.03;6224631;23;20066;-83
2021/12/30 06:13:04;;;;;;;4.65;3.55;;;;;;;13.35;97.55;100813.84;6222150;23;20029;-83
2021/12/30 06:15:31;;;;;;;4.57;3.47;;;;;;;13.38;97.47;100807.44;6222673;23;20029;-83
2021/12/30 06:17:57;;;;;;;3.67;3.38;;;;;;;13.41;97.40;100810.53;6221212;23;20028;-82
2021/12/30 06:20:24;;;;;;;5.03;3.67;;;;;;;13.44;97.07;100820.72;6222578;23;20043;-82
2021/12/30 06:22:52;;;;;;;4.18;3.60;;;;;;;13.42;97.20;100827.13;6222215;23;20370;-82
2021/12/30 06:25:19;;;;;;;4.00;3.45;;;;;;;13.49;96.94;100828.09;6221881;23;20464;-82
2021/12/30 06:27:46;;;;;;;4.50;3.33;;;;;;;13.48;96.69;100829.91;6221720;23;20021;-82
2021/12/30 06:30:14;;;;;;;4.43;3.70;;;;;;;13.50;96.72;100830.56;6222683;23;20016;-82
2021/12/30 06:32:41;;;;;;;5.15;3.50;;;;;;;13.50;96.73;100825.31;6224739;23;20059;-82
2021/12/30 06:35:09;;;;;;;5.15;3.67;;;;;;;13.47;96.62;100825.63;6224833;23;20546;-81
2021/12/30 06:37:36;;;;;;;4.78;3.30;;;;;;;13.52;96.50;100833.84;6222435;23;20035;-81
2021/12/30 06:40:07;;;;;;;3.65;3.28;;;;;;;13.49;96.38;100828.91;6223960;23;20043;-82
2021/12/30 06:42:34;;;;;;;3.95;3.55;;;;;;;13.54;96.00;100841.56;6224795;23;20035;-81
2021/12/30 06:45:01;;;;;;;3.83;3.45;;;;;;;13.57;95.69;100844.66;6225095;23;20048;-81
2021/12/30 06:47:27;;;;;;;3.58;3.20;;;;;;;13.67;95.03;100841.03;6225682;23;20021;-81
2021/12/30 06:50:00;;;;;;;3.40;3.10;;;;;;;13.65;95.04;100833.31;6225575;23;20021;-81
2021/12/30 06:52:28;;;;;;;3.97;3.50;;;;;;;13.68;95.09;100837.41;6226974;23;20036;-81
2021/12/30 06:54:55;;;;;;;4.88;3.13;;;;;;;13.65;95.00;100838.56;6222350;23;20109;-82
2021/12/30 06:57:23;;;;;;;3.22;2.92;;;;;;;13.59;95.40;100840.06;6221885;23;20043;-83
2021/12/30 06:59:50;;;;;;;3.65;3.35;;;;;;;13.64;95.43;100842.19;6221116;23;20067;-81
2021/12/30 07:02:17;;;;;;;3.40;3.05;;;;;;;13.60;95.38;100840.88;6222088;23;20032;-80
2021/12/30 07:04:44;;;;;;;3.50;2.63;;;;;;;13.61;95.24;100837.25;6221508;23;20017;-83
2021/12/30 07:07:11;;;;;;;3.35;2.83;;;;;;;13.69;94.85;100853.00;6224587;23;20013;-83
2021/12/30 07:09:37;;;;;;;3.38;3.08;;;;;;;13.66;94.98;100855.16;6227261;23;20028;-83
2021/12/30 07:12:05;;;;;;;5.30;3.17;;;;;;;13.68;95.08;100850.56;6222611;23;20020;-83
2021/12/30 07:14:33;;;;;;;2.90;2.60;;;;;;;13.66;94.79;100839.38;6228396;23;20012;-82
2021/12/30 07:17:00;;;;;;;2.75;2.55;;;;;;;13.64;94.71;100831.66;6228484;23;20430;-82
2021/12/30 07:19:27;;;;;;;5.43;2.50;;;;;;;13.68;94.59;100850.56;6229134;23;20052;-82
2021/12/30 07:21:54;;;;;;;2.60;2.40;;;;;;;13.69;94.28;100858.28;6229867;23;20029;-82
2021/12/30 07:24:21;;;;;;;2.60;2.40;;;;;;;13.69;94.21;100846.94;6229874;23;20016;-82
2021/12/30 07:26:48;;;;;;;2.33;2.13;;;;;;;13.73;94.08;100846.38;6219204;23;20032;-82
2021/12/30 07:29:15;;;;;;;2.20;2.00;;;;;;;13.70;94.06;100852.03;6223322;23;20086;-83
2021/12/30 07:31:43;;;;;;;2.25;2.05;;;;;;;13.71;94.29;100858.06;6219666;23;20020;-81
2021/12/30 07:34:10;;;;;;;2.83;2.08;;;;;;;13.68;94.52;100863.69;6219483;23;20044;-82
2021/12/30 07:36:37;;;;;;;3.38;2.58;;;;;;;13.62;94.63;100873.09;6223273;23;20051;-82
2021/12/30 07:39:04;;;;;;;5.13;2.90;;;;;;;13.61;94.71;100882.78;6230197;23;20004;-82
2021/12/30 07:41:31;;;;;;;3.15;2.83;;;;;;;13.68;94.84;100895.25;6223531;23;20071;-83
2021/12/30 07:43:58;;;;;;;3.63;3.17;;;;;;;13.65;94.65;100880.63;6219744;23;20079;-83
2021/12/30 07:46:25;;;;;;;2.95;2.65;;;;;;;13.68;94.34;100890.81;6220458;23;20020;-83
2021/12/30 07:48:53;;;;;;;4.25;2.90;;;;;;;13.69;94.45;100907.41;6206686;23;20021;-83
2021/12/30 07:51:22;;;;;;;3.95;3.10;;;;;;;13.73;94.32;100909.50;6187851;23;20461;-83
2021/12/30 07:53:49;;;;;;;4.18;2.67;;;;;;;13.76;94.30;100921.50;6188023;23;20075;-83
2021/12/30 07:56:16;;;;;;;3.08;2.83;;;;;;;13.81;94.10;100922.63;6188681;23;20017;-82
2021/12/30 07:58:42;;;;;;;4.07;3.05;;;;;;;13.76;93.79;100922.31;6187522;23;20408;-83
2021/12/30 08:01:09;;;;;;;3.40;2.75;;;;;;;13.79;93.66;100934.31;6189698;23;20021;-84
2021/12/30 08:03:36;;;;;;;3.28;2.97;;;;;;;13.77;93.56;100931.84;6189315;23;20361;-82
2021/12/30 08:06:04;;;;;;;4.85;2.97;;;;;;;13.80;93.22;100942.03;6190038;23;20096;-83
2021/12/30 08:08:31;;;;;;;5.28;3.30;;;;;;;13.76;93.62;100939.91;6188232;23;20027;-80
2021/12/30 08:10:58;;;;;;;2.97;2.78;;;;;;;13.76;93.64;100946.00;6190199;23;20029;-81
2021/12/30 08:13:25;;;;;;;3.65;3.20;;;;;;;13.79;93.31;100939.56;6187668;23;20442;-82
2021/12/30 08:15:52;;;;;;;4.78;3.90;;;;;;;13.82;93.27;100950.56;6194313;23;20059;-82
2021/12/30 08:18:19;;;;;;;4.78;3.40;;;;;;;13.82;93.09;100957.66;6186812;23;20021;-83
2021/12/30 08:20:46;;;;;;;4.43;3.55;;;;;;;13.85;93.22;100962.56;6186790;23;20017;-84
2021/12/30 08:23:14;;;;;;;5.85;3.67;;;;;;;13.85;93.11;100965.19;6183998;23;20017;-82
2021/12/30 08:25:41;;;;;;;4.38;3.78;;;;;;;13.83;93.17;100977.69;6186163;23;20524;-82
2021/12/30 08:28:08;;;;;;;3.95;3.45;;;;;;;13.82;93.50;100965.53;6185633;23;20032;-82
2021/12/30 08:30:34;;;;;;;5.35;4.18;;;;;;;13.81;93.61;100971.78;6187218;23;20024;-80
2021/12/30 08:33:01;;;;;;;4.50;4.05;;;;;;;13.80;93.80;100967.50;6194987;23;20021;-80
2021/12/30 08:35:28;;;;;;;6.55;4.43;;;;;;;13.82;93.85;100960.28;6195708;23;20025;-80
2021/12/30 08:37:55;;;;;;;4.93;4.38;;;;;;;13.84;93.71;100980.16;6196677;23;20073;-80
2021/12/30 08:40:24;;;;;;;5.43;4.70;;;;;;;13.80;93.73;100978.84;6194701;23;20048;-81
2021/12/30 08:42:51;;;;;;;5.30;4.80;;;;;;;13.85;93.46;100980.97;6192252;23;20413;-80
2021/12/30 08:45:18;;;;;;;5.18;4.45;;;;;;;13.82;93.59;100983.94;6191532;23;20091;-81
2021/12/30 08:47:45;;;;;;;8.85;5.10;;;;;;;13.89;93.43;100987.56;6191848;23;20068;-82
2021/12/30 08:50:15;;;;;;;5.32;4.82;;;;;;;13.86;93.34;100987.88;6192246;23;20035;-82
2021/12/30 08:52:43;;;;;;;7.20;5.43;;;;;;;13.83;93.54;100982.97;6191046;23;20449;-82
2021/12/30 08:55:10;;;;;;;7.25;4.72;;;;;;;13.86;93.57;100987.88;6190844;23;20017;-81
2021/12/30 08:57:40;;;;;;;6.43;4.55;;;;;;;13.87;93.38;100994.78;6193702;23;20029;-81
2021/12/30 09:00:12;;;;;;;5.10;4.60;;;;;;;13.88;93.61;100991.16;6193251;23;20026;-82
2021/12/30 09:02:39;;;;;;;5.47;4.07;;;;;;;13.96;93.60;100993.78;6195665;23;20029;-78
2021/12/30 09:05:07;;;;;;;4.97;4.00;;;;;;;13.93;93.14;101002.84;6184544;23;20446;-81
2021/12/30 09:07:33;;;;;;;4.40;4.00;;;;;;;14.00;92.89;100997.72;6187358;23;20052;-79
2021/12/30 09:10:00;;;;;;;4.20;3.80;;;;;;;14.03;92.55;101004.47;6187743;23;20048;-80
2021/12/30 09:12:27;;;;;;;4.43;4.03;;;;;;;13.95;92.89;100994.78;6185872;23;20273;-80
2021/12/30 09:14:55;;;;;;;5.15;3.90;;;;;;;14.03;92.52;100993.94;6195264;23;20029;-81
2021/12/30 09:17:22;;;;;;;6.28;4.15;;;;;;;14.03;92.36;100994.75;6195376;23;20027;-80
2021/12/30 09:19:49;;;;;;;5.72;4.32;;;;;;;14.08;92.28;101002.97;6195149;23;20044;-80
2021/12/30 09:22:16;;;;;;;5.63;4.18;;;;;;;14.13;91.77;100998.00;6196025;23;20017;-79
2021/12/30 09:24:43;;;;;;;4.95;4.35;;;;;;;14.08;91.96;100996.88;6196611;23;20354;-79
2021/12/30 09:27:10;;;;;;;5.57;4.45;;;;;;;14.14;91.49;100997.03;6197082;23;20075;-81
2021/12/30 09:29:37;;;;;;;4.20;3.80;;;;;;;14.24;91.06;101002.88;6194930;23;20029;-81
2021/12/30 09:32:06;;;;;;;4.60;3.40;;;;;;;14.24;91.09;101009.97;6197612;23;20017;-80
2021/12/30 09:34:33;;;;;;;5.65;3.38;;;;;;;14.27;90.91;101018.34;6197515;23;20083;-80
2021/12/30 09:37:00;;;;;;;2.95;2.53;;;;;;;14.27;91.00;101020.97;6196605;23;20044;-80
2021/12/30 09:39:26;;;;;;;2.75;2.55;;;;;;;14.28;90.95;101017.34;6195016;23;20013;-81
2021/12/30 09:41:54;;;;;;;3.85;2.75;;;;;;;14.28;90.98;101009.44;6197010;23;20013;-80
2021/12/30 09:44:21;;;;;;;2.60;2.40;;;;;;;14.33;91.12;101021.28;6196141;23;20052;-80
2021/12/30 09:46:48;;;;;;;6.32;2.75;;;;;;;14.40;90.66;101022.25;6194413;23;20021;-81
2021/12/30 09:49:18;;;;;;;2.40;2.20;;;;;;;14.48;90.17;101030.13;6193132;23;20024;-81
2021/12/30 09:51:45;;;;;;;3.83;2.10;;;;;;;14.51;90.10;101027.97;6190728;23;20059;-81
2021/12/30 09:54:13;;;;;;;2.20;2.10;;;;;;;14.54;89.92;101030.28;6190225;23;20032;-81
2021/12/30 09:56:41;;;;;;;1.92;1.80;;;;;;;14.59;90.12;101037.66;6190838;23;20329;-80
2021/12/30 09:59:08;;;;;;;2.28;2.10;;;;;;;14.63;89.89;101052.13;6191083;23;20362;-81
2021/12/30 10:01:36;;;;;;;1.77;1.67;;;;;;;14.62;89.94;101047.84;6193035;23;20060;-80
2021/12/30 10:04:04;;;;;;;2.85;1.90;;;;;;;14.66;89.70;101040.41;6190301;23;20021;-82
2021/12/30 10:06:33;;;;;;;2.63;1.90;;;;;;;14.58;89.72;101043.94;6190534;23;20056;-81
2021/12/30 10:09:02;;;;;;;3.10;2.72;;;;;;;14.61;89.75;101046.22;6193125;23;20040;-82
2021/12/30 10:11:29;;;;;;;2.42;2.17;;;;;;;14.59;90.00;101037.66;6192542;23;20031;-82
2021/12/30 10:13:59;;;;;;;2.60;2.40;;;;;;;14.58;89.71;101047.38;6193494;23;20040;-82
2021/12/30 10:16:27;;;;;;;1.90;1.80;;;;;;;14.60;89.83;101042.75;6194409;23;20017;-82
2021/12/30 10:18:56;;;;;;;3.15;2.55;;;;;;;14.58;90.29;101031.56;6194069;23;20385;-83
2021/12/30 10:21:25;;;;;;;2.78;2.50;;;;;;;14.70;89.60;101044.34;6193970;23;20274;-81
2021/12/30 10:23:55;;;;;;;3.75;2.42;;;;;;;14.67;89.38;101045.50;6194592;23;20354;-81
2021/12/30 10:26:22;;;;;;;2.88;2.50;;;;;;;14.68;89.55;101055.03;6195633;23;20056;-82
2021/12/30 10:28:51;;;;;;;3.17;2.38;;;;;;;14.66;89.71;101046.50;6196010;23;20021;-82
2021/12/30 10:31:24;;;;;;;2.60;2.40;;;;;;;14.72;89.33;101039.72;6199088;23;20009;-82
2021/12/30 10:33:54;;;;;;;3.85;2.47;;;;;;;14.80;89.04;101055.47;6195919;23;20083;-82
2021/12/30 10:36:24;;;;;;;3.55;2.40;;;;;;;14.71;89.35;101044.16;6195075;23;20021;-82
2021/12/30 10:38:53;;;;;;;2.53;2.33;;;;;;;14.76;89.19;101054.19;6192829;23;20017;-79
2021/12/30 10:41:24;;;;;;;4.63;2.22;;;;;;;14.77;89.13;101064.56;6191186;23;20093;-80
2021/12/30 10:43:57;;;;;;;3.05;2.78;;;;;;;14.73;89.15;101065.06;6192999;23;20052;-80
2021/12/30 10:46:25;;;;;;;3.67;2.88;;;;;;;14.69;89.46;101069.03;6194412;23;20021;-81
2021/12/30 10:48:55;;;;;;;4.63;3.00;;;;;;;14.66;89.42;101075.47;6195584;23;20047;-81
2021/12/30 10:51:23;;;;;;;3.72;2.78;;;;;;;14.67;89.50;101065.75;6199831;23;20040;-81
2021/12/30 10:53:51;;;;;;;3.72;2.55;;;;;;;14.68;89.24;101081.38;6195675;23;20491;-81
2021/12/30 10:56:38;;;;;;;4.13;2.85;;;;;;;14.66;89.31;101075.47;6197768;23;20027;-80
2021/12/30 10:59:10;;;;;;;4.65;2.83;;;;;;;14.64;88.86;101074.03;6194892;23;20044;-81
2021/12/30 11:01:39;;;;;;;3.63;3.13;;;;;;;14.58;88.88;101072.88;6196082;23;20045;-81
2021/12/30 11:04:06;;;;;;;4.88;2.90;;;;;;;14.70;88.64;101075.94;6194636;23;20013;-81
2021/12/30 11:06:32;;;;;;;3.92;3.20;;;;;;;14.71;88.21;101077.59;6194469;23;20442;-80
2021/12/30 11:09:12;;;;;;;3.60;3.17;;;;;;;14.83;87.32;101060.41;6194210;23;20068;-81
2021/12/30 11:11:44;;;;;;;6.55;3.67;;;;;;;14.81;87.46;101063.22;6196296;23;20048;-80
2021/12/30 11:14:12;;;;;;;;;;;;;;;14.92;87.05;101051.47;6196720;23;20016;-81
2021/12/30 11:17:04;;;;;;;5.65;3.33;;;;;;;14.85;86.82;101048.69;6196056;23;19931;-80
2021/12/30 11:19:43;;;;;;;5.43;3.40;;;;;;;14.66;86.68;101038.59;6157249;23;20032;-83
2021/12/30 11:22:21;;;;;;;6.38;3.40;;;;;;;14.74;86.34;101035.91;6194493;23;20029;-83
2021/12/30 11:24:50;;;;;;;7.82;4.03;;;;;;;14.76;86.28;101057.63;6193761;23;20021;-83